Time;durP1;ratioP1;P1;durP2;ratioP2;P2;SDS_P1;SDS_P2;PMS_P1;PMS_P2;Temp;Humidity;BMP_temperature;BMP_pressure;BME280_temperature;BME280_humidity;BME280_pressure;Samples;Min_cycle;Max_cycle;Signal;HPM_P1;HPM_P2
2022/02/03 00:00:03;;;;;;;;;;;;;;;;;;2118924;28;19925;-80
2022/02/03 00:01:12;;;;;;;;;;;;;;;;;;2120207;27;19928;-80
2022/02/03 00:02:27;;;;;;;;;;;;;;;;;;2125252;27;20801;-79
2022/02/03 00:04:59;;;;;;;;;;;;;;;;;;2118325;28;20721;-80
2022/02/03 00:06:08;;;;;;;;;;;;;;;;;;2118412;28;20054;-80
2022/02/03 00:07:13;;;;;;;;;;;;;;;;;;2119443;27;19928;-81
2022/02/03 00:21:59;;;;;;;;;;;;;;;;;;2127964;27;19930;-79
2022/02/03 00:25:08;;;;;;;;;;;;;;;;;;2127166;27;19924;-78
2022/02/03 00:26:12;;;;;;;;;;;;;;;;;;2126925;27;19944;-81
2022/02/03 00:27:18;;;;;;;;;;;;;;;;;;2126779;27;19924;-78
2022/02/03 00:28:26;;;;;;;;;;;;;;;;;;2126057;27;20615;-78
2022/02/03 00:29:49;;;;;;;;;;;;;;;;;;2126517;27;19978;-78
2022/02/03 00:31:07;;;;;;;;;;;;;;;;;;2122354;27;20115;-78
2022/02/03 00:32:17;;;;;;;;;;;;;;;;;;2126631;27;19982;-79
2022/02/03 00:33:34;;;;;;;;;;;;;;;;;;2126470;27;20576;-79
2022/02/03 00:35:04;;;;;;;;;;;;;;;;;;2126635;27;20697;-78
2022/02/03 00:37:30;;;;;;;;;;;;;;;;;;2127028;27;19927;-78
2022/02/03 00:48:20;;;;;;;;;;;;;;;;;;2100767;28;19929;-79
2022/02/03 00:49:21;;;;;;;;;;;;;;;;;;2092986;28;19980;-79
2022/02/03 00:50:30;;;;;;;;;;;;;;;;;;2093077;28;19929;-79
2022/02/03 00:51:33;;;;;;;;;;;;;;;;;;2092598;28;19925;-79
2022/02/03 00:52:35;;;;;;;;;;;;;;;;;;2117877;27;19924;-80
2022/02/03 00:53:38;;;;;;;;;;;;;;;;;;2126720;27;20026;-80
2022/02/03 00:54:43;;;;;;;;;;;;;;;;;;2120529;27;20050;-80
2022/02/03 00:55:46;;;;;;;;;;;;;;;;;;2118338;27;19969;-80
2022/02/03 00:56:48;;;;;;;;;;;;;;;;;;2126357;27;19924;-80
2022/02/03 00:57:51;;;;;;;;;;;;;;;;;;2135472;27;19934;-80
2022/02/03 00:58:52;;;;;;;;;;;;;;;;;;2134656;27;19924;-80
2022/02/03 00:59:54;;;;;;;;;;;;;;;;;;2118200;27;19978;-79
2022/02/03 01:00:59;;;;;;;;;;;;;;;;;;2126402;27;19992;-79
2022/02/03 01:02:01;;;;;;;;;;;;;;;;;;2126552;27;20603;-79
2022/02/03 01:03:04;;;;;;;;;;;;;;;;;;2126124;27;20496;-79
2022/02/03 01:04:06;;;;;;;;;;;;;;;;;;2118283;27;20188;-79
2022/02/03 01:05:07;;;;;;;;;;;;;;;;;;2126316;27;19934;-79
2022/02/03 01:06:10;;;;;;;;;;;;;;;;;;2135680;27;20031;-79
2022/02/03 01:07:14;;;;;;;;;;;;;;;;;;2135060;27;20733;-79
2022/02/03 01:08:19;;;;;;;;;;;;;;;;;;2119496;27;19924;-81
2022/02/03 01:09:22;;;;;;;;;;;;;;;;;;2128000;27;20705;-80
2022/02/03 01:10:30;;;;;;;;;;;;;;;;;;2127629;27;20735;-81
2022/02/03 01:11:42;;;;;;;;;;;;;;;;;;2128176;27;20033;-81
2022/02/03 01:13:08;;;;;;;;;;;;;;;;;;2128871;27;19924;-80
2022/02/03 01:14:16;;;;;;;;;;;;;;;;;;2128039;27;20020;-78
2022/02/03 01:15:34;;;;;;;;;;;;;;;;;;2128437;27;19986;-79
2022/02/03 01:19:44;;;;;;;;;;;;;;;;;;2123942;27;20684;-78
2022/02/03 01:44:29;;;;;;;;;;;;;;;;;;2120168;28;20699;-77
2022/02/03 01:45:49;;;;;;;;;;;;;;;;;;2120156;27;19975;-77
2022/02/03 01:47:05;;;;;;;;;;;;;;;;;;2120016;28;19925;-77
2022/02/03 01:48:20;;;;;;;;;;;;;;;;;;2119510;28;20009;-78
2022/02/03 01:49:38;;;;;;;;;;;;;;;;;;2119787;28;20611;-77
2022/02/03 01:52:04;;;;;;;;;;;;;;;;;;2123224;27;19928;-76
2022/02/03 01:53:06;;;;;;;;;;;;;;;;;;2125484;27;19924;-76
2022/02/03 01:54:08;;;;;;;;;;;;;;;;;;2119552;27;19928;-76
2022/02/03 01:55:10;;;;;;;;;;;;;;;;;;2119829;28;20035;-77
2022/02/03 01:56:12;;;;;;;;;;;;;;;;;;2127405;27;19967;-79
2022/02/03 01:57:14;;;;;;;;;;;;;;;;;;2119641;27;19955;-79
2022/02/03 01:58:16;;;;;;;;;;;;;;;;;;2126127;27;19928;-78
2022/02/03 01:59:18;;;;;;;;;;;;;;;;;;2127230;27;19924;-80
2022/02/03 02:00:21;;;;;;;;;;;;;;;;;;2131127;27;20042;-80
2022/02/03 02:01:23;;;;;;;;;;;;;;;;;;2125886;27;19924;-80
2022/02/03 02:02:25;;;;;;;;;;;;;;;;;;2126559;27;19958;-80
2022/02/03 02:03:28;;;;;;;;;;;;;;;;;;2126339;27;19927;-81
2022/02/03 02:04:30;;;;;;;;;;;;;;;;;;2125965;27;19982;-80
2022/02/03 02:05:33;;;;;;;;;;;;;;;;;;2125598;27;20679;-80
2022/02/03 02:06:34;;;;;;;;;;;;;;;;;;2126055;27;19940;-80
2022/02/03 02:07:37;;;;;;;;;;;;;;;;;;2126123;27;19999;-80
2022/02/03 02:08:39;;;;;;;;;;;;;;;;;;2126993;27;20798;-78
2022/02/03 02:09:53;;;;;;;;;;;;;;;;;;2125819;27;19924;-78
2022/02/03 02:11:10;;;;;;;;;;;;;;;;;;2126232;27;19934;-78
2022/02/03 02:12:26;;;;;;;;;;;;;;;;;;2128214;27;19931;-82
2022/02/03 02:15:16;;;;;;;;;;;;;;;;;;2127732;27;19928;-79
2022/02/03 02:16:38;;;;;;;;;;;;;;;;;;2127430;27;21078;-78
2022/02/03 02:18:58;;;;;;;;;;;;;;;;;;2127880;27;19963;-79
2022/02/03 02:39:50;;;;;;;;;;;;;;;;;;2126244;27;19974;-80
2022/02/03 02:42:32;;;;;;;;;;;;;;;;;;2099716;28;20139;-79
2022/02/03 02:43:35;;;;;;;;;;;;;;;;;;2120198;27;19928;-80
2022/02/03 02:44:37;;;;;;;;;;;;;;;;;;2117745;27;19993;-79
2022/02/03 02:45:40;;;;;;;;;;;;;;;;;;2125607;27;19923;-80
2022/02/03 02:46:46;;;;;;;;;;;;;;;;;;2125614;27;19927;-79
2022/02/03 02:47:48;;;;;;;;;;;;;;;;;;2126336;27;19924;-80
2022/02/03 02:48:50;;;;;;;;;;;;;;;;;;2126459;27;20657;-81
2022/02/03 02:49:52;;;;;;;;;;;;;;;;;;2125601;27;19934;-80
2022/02/03 02:51:04;;;;;;;;;;;;;;;;;;2126124;27;20686;-79
2022/02/03 02:52:11;;;;;;;;;;;;;;;;;;2126624;27;19928;-82
2022/02/03 03:30:29;;;;;;;;;;;;;;;;;;2127748;27;19924;-79
2022/02/03 03:35:01;;;;;;;;;;;;;;;;;;2128212;27;19923;-79
2022/02/03 03:36:23;;;;;;;;;;;;;;;;;;2127230;27;20080;-79
2022/02/03 03:37:47;;;;;;;;;;;;;;;;;;2127853;27;19924;-80
2022/02/03 03:39:08;;;;;;;;;;;;;;;;;;2128860;27;19923;-80
2022/02/03 03:40:31;;;;;;;;;;;;;;;;;;2127866;27;19930;-81
2022/02/03 03:41:53;;;;;;;;;;;;;;;;;;2130268;27;19924;-80
2022/02/03 03:43:15;;;;;;;;;;;;;;;;;;2128304;27;19923;-80
2022/02/03 03:44:36;;;;;;;;;;;;;;;;;;2118962;22;19933;-78
2022/02/03 03:45:59;;;;;;;;;;;;;;;;;;2102017;28;19924;-79
2022/02/03 03:47:20;;;;;;;;;;;;;;;;;;2101969;28;19936;-78
2022/02/03 03:48:41;;;;;;;;;;;;;;;;;;2098650;28;19976;-79
2022/02/03 03:50:03;;;;;;;;;;;;;;;;;;2098721;28;19937;-78
2022/02/03 03:51:23;;;;;;;;;;;;;;;;;;2098729;28;19931;-79
2022/02/03 03:52:46;;;;;;;;;;;;;;;;;;2099082;28;20021;-78
2022/02/03 03:54:02;;;;;;;;;;;;;;;;;;2096936;28;19928;-79
2022/02/03 03:56:05;;;;;;;;;;;;;;;;;;2098083;28;19935;-80
2022/02/03 04:55:22;;;;;;;;;;;;;;;;;;2097442;28;19932;-81
2022/02/03 05:01:40;;;;;;;;;;;;;;;;;;2095776;28;19929;-80
2022/02/03 05:04:32;;;;;;;;;;;;;;;;;;2103116;28;19935;-79
2022/02/03 05:05:46;;;;;;;;;;;;;;;;;;2103090;28;19929;-79
2022/02/03 05:08:55;;;;;;;;;;;;;;;;;;2102062;28;20774;-79
2022/02/03 05:11:30;;;;;;;;;;;;;;;;;;2102340;28;20724;-78
2022/02/03 05:20:54;;;;;;;;;;;;;;;;;;2103167;28;19935;-81
2022/02/03 05:25:15;;;;;;;;;;;;;;;;;;2102679;28;19955;-81
2022/02/03 05:26:27;;;;;;;;;;;;;;;;;;2102722;28;19929;-80
2022/02/03 05:35:07;;;;;;;;;;;;;;;;;;2103600;28;20684;-80
2022/02/03 05:49:01;;;;;;;;;;;;;;;;;;2092959;28;19975;-82
2022/02/03 05:50:40;;;;;;;;;;;;;;;;;;2101425;28;19937;-79
2022/02/03 06:03:32;;;;;;;;;;;;;;;;;;2093237;28;20728;-80
2022/02/03 06:04:54;;;;;;;;;;;;;;;;;;2092368;28;20664;-78
2022/02/03 06:07:49;;;;;;;;;;;;;;;;;;2092352;28;19972;-80
2022/02/03 06:12:15;;;;;;;;;;;;;;;;;;2109952;28;20015;-79
2022/02/03 06:13:34;;;;;;;;;;;;;;;;;;2110136;28;19932;-80
2022/02/03 06:14:53;;;;;;;;;;;;;;;;;;2109414;28;19928;-81
2022/02/03 06:17:31;;;;;;;;;;;;;;;;;;2110329;28;19998;-79
2022/02/03 06:21:33;;;;;;;;;;;;;;;;;;2109446;28;20751;-80
2022/02/03 06:27:24;;;;;;;;;;;;;;;;;;2109365;28;19936;-80
2022/02/03 06:28:06;;;;;;;;;;;;;;;;;;2109882;28;19955;-81
2022/02/03 06:29:10;;;;;;;;;;;;;;;;;;2109421;28;20126;-81
2022/02/03 06:30:12;;;;;;;;;;;;;;;;;;2110508;28;19929;-81
2022/02/03 06:31:17;;;;;;;;;;;;;;;;;;2110563;28;19925;-80
2022/02/03 06:32:22;;;;;;;;;;;;;;;;;;2096744;28;19957;-80
2022/02/03 06:33:24;;;;;;;;;;;;;;;;;;2087933;28;20000;-80
2022/02/03 06:34:28;;;;;;;;;;;;;;;;;;2090611;28;19929;-77
2022/02/03 06:35:31;;;;;;;;;;;;;;;;;;2095515;28;19929;-78
2022/02/03 06:36:34;;;;;;;;;;;;;;;;;;2095874;28;19929;-78
2022/02/03 06:37:38;;;;;;;;;;;;;;;;;;2096401;28;19929;-77
2022/02/03 06:38:52;;;;;;;;;;;;;;;;;;2100012;28;20131;-79
2022/02/03 06:40:20;;;;;;;;;;;;;;;;;;2095835;28;20041;-78
2022/02/03 06:41:43;;;;;;;;;;;;;;;;;;2092720;28;19929;-80
2022/02/03 06:43:07;;;;;;;;;;;;;;;;;;2097647;28;19932;-79
2022/02/03 06:44:21;;;;;;;;;;;;;;;;;;2094501;28;19924;-80
2022/02/03 06:45:49;;;;;;;;;;;;;;;;;;2094787;28;19933;-79
2022/02/03 06:46:51;;;;;;;;;;;;;;;;;;2095405;28;19929;-82
2022/02/03 06:48:20;;;;;;;;;;;;;;;;;;2103331;28;20762;-81
2022/02/03 06:49:42;;;;;;;;;;;;;;;;;;2095151;28;19955;-65
2022/02/03 06:50:49;;;;;;;;;;;;;;;;;;2093713;28;20035;-69
2022/02/03 06:52:00;;;;;;;;;;;;;;;;;;2092760;28;19936;-66
2022/02/03 06:53:14;;;;;;;;;;;;;;;;;;2093396;28;19929;-70
2022/02/03 06:54:27;;;;;;;;;;;;;;;;;;2090863;28;20791;-67
2022/02/03 06:56:48;;;;;;;;;;;;;;;;;;2097579;28;19925;-66
2022/02/03 06:57:57;;;;;;;;;;;;;;;;;;2092084;28;20784;-64
2022/02/03 06:59:01;;;;;;;;;;;;;;;;;;2091881;28;19929;-66
2022/02/03 07:00:07;;;;;;;;;;;;;;;;;;2092072;28;19929;-65
2022/02/03 07:01:24;;;;;;;;;;;;;;;;;;2096246;28;20679;-64
2022/02/03 07:02:29;;;;;;;;;;;;;;;;;;2093948;28;20066;-63
2022/02/03 07:03:36;;;;;;;;;;;;;;;;;;2089936;28;19927;-70
2022/02/03 07:04:44;;;;;;;;;;;;;;;;;;2092702;28;19925;-67
2022/02/03 07:05:46;;;;;;;;;;;;;;;;;;2097121;28;19975;-68
2022/02/03 07:06:48;;;;;;;;;;;;;;;;;;2100208;28;19964;-65
2022/02/03 07:07:52;;;;;;;;;;;;;;;;;;2096406;28;20729;-63
2022/02/03 07:08:59;;;;;;;;;;;;;;;;;;2092436;28;19932;-73
2022/02/03 07:10:03;;;;;;;;;;;;;;;;;;2093155;28;19925;-68
2022/02/03 07:11:06;;;;;;;;;;;;;;;;;;2093909;28;20739;-65
2022/02/03 07:12:07;;;;;;;;;;;;;;;;;;2098643;28;20721;-69
2022/02/03 07:13:11;;;;;;;;;;;;;;;;;;2100857;28;19940;-72
2022/02/03 07:14:17;;;;;;;;;;;;;;;;;;2107395;28;20754;-71
2022/02/03 07:15:19;;;;;;;;;;;;;;;;;;2099729;28;19929;-64
2022/02/03 07:16:23;;;;;;;;;;;;;;;;;;2097405;28;19928;-64
2022/02/03 07:17:27;;;;;;;;;;;;;;;;;;2099050;28;19936;-65
2022/02/03 07:18:31;;;;;;;;;;;;;;;;;;2094387;28;20711;-66
2022/02/03 07:19:39;;;;;;;;;;;;;;;;;;2093490;28;20035;-61
2022/02/03 07:20:41;;;;;;;;;;;;;;;;;;2100572;28;19975;-71
2022/02/03 07:21:47;;;;;;;;;;;;;;;;;;2094271;28;19925;-68
2022/02/03 07:22:51;;;;;;;;;;;;;;;;;;2101146;28;20796;-69
2022/02/03 07:23:55;;;;;;;;;;;;;;;;;;2099607;28;19975;-69
2022/02/03 07:24:58;;;;;;;;;;;;;;;;;;2095597;28;19929;-65
2022/02/03 07:26:04;;;;;;;;;;;;;;;;;;2093027;28;19928;-61
2022/02/03 07:27:11;;;;;;;;;;;;;;;;;;2094463;28;20021;-66
2022/02/03 07:28:16;;;;;;;;;;;;;;;;;;2099731;28;19936;-67
2022/02/03 07:29:23;;;;;;;;;;;;;;;;;;2094420;28;20003;-69
2022/02/03 07:30:30;;;;;;;;;;;;;;;;;;2098561;28;19933;-66
2022/02/03 07:31:37;;;;;;;;;;;;;;;;;;2100266;28;19940;-68
2022/02/03 07:32:44;;;;;;;;;;;;;;;;;;2092506;28;19966;-64
2022/02/03 07:33:52;;;;;;;;;;;;;;;;;;2092763;28;19925;-62
2022/02/03 07:35:09;;;;;;;;;;;;;;;;;;2092243;28;20755;-67
2022/02/03 07:36:31;;;;;;;;;;;;;;;;;;2091426;28;19936;-64
2022/02/03 07:37:52;;;;;;;;;;;;;;;;;;2094073;28;20715;-63
2022/02/03 07:39:14;;;;;;;;;;;;;;;;;;2095490;28;19928;-67
2022/02/03 07:40:35;;;;;;;;;;;;;;;;;;2099270;28;19932;-65
2022/02/03 07:41:57;;;;;;;;;;;;;;;;;;2095495;28;19936;-67
2022/02/03 07:43:20;;;;;;;;;;;;;;;;;;2092516;28;19929;-63
2022/02/03 07:44:41;;;;;;;;;;;;;;;;;;2092295;28;19925;-66
2022/02/03 07:46:03;;;;;;;;;;;;;;;;;;2093136;28;20704;-65
2022/02/03 07:47:24;;;;;;;;;;;;;;;;;;2094102;28;20206;-69
2022/02/03 07:48:46;;;;;;;;;;;;;;;;;;2090702;28;21548;-69
2022/02/03 07:50:08;;;;;;;;;;;;;;;;;;2091550;28;19929;-68
2022/02/03 07:51:29;;;;;;;;;;;;;;;;;;2092207;28;19929;-67
2022/02/03 07:52:51;;;;;;;;;;;;;;;;;;2092311;28;19936;-68
2022/02/03 07:54:12;;;;;;;;;;;;;;;;;;2092083;28;21013;-69
2022/02/03 07:55:35;;;;;;;;;;;;;;;;;;2096521;28;20006;-67
2022/02/03 07:56:56;;;;;;;;;;;;;;;;;;2095898;28;19929;-66
2022/02/03 07:58:18;;;;;;;;;;;;;;;;;;2093074;28;19936;-66
2022/02/03 07:59:40;;;;;;;;;;;;;;;;;;2097507;28;20041;-67
2022/02/03 08:01:01;;;;;;;;;;;;;;;;;;2094577;28;20054;-67
2022/02/03 08:02:23;;;;;;;;;;;;;;;;;;2091432;28;20784;-66
2022/02/03 08:03:45;;;;;;;;;;;;;;;;;;2090965;28;19933;-69
2022/02/03 08:05:07;;;;;;;;;;;;;;;;;;2094103;28;20545;-66
2022/02/03 08:06:33;;;;;;;;;;;;;;;;;;2095793;28;20003;-66
2022/02/03 08:08:03;;;;;;;;;;;;;;;;;;2091987;28;19928;-67
2022/02/03 08:09:45;;;;;;;;;;;;;;;;;;2093211;28;19925;-67
2022/02/03 08:11:11;;;;;;;;;;;;;;;;;;2100309;28;19929;-67
2022/02/03 08:12:33;;;;;;;;;;;;;;;;;;2092834;28;20624;-65
2022/02/03 08:13:57;;;;;;;;;;;;;;;;;;2092071;28;19936;-68
2022/02/03 08:15:21;;;;;;;;;;;;;;;;;;2096279;28;19928;-67
2022/02/03 08:16:57;;;;;;;;;;;;;;;;;;2093870;28;20015;-67
2022/02/03 08:18:20;;;;;;;;;;;;;;;;;;2092866;28;19933;-68
2022/02/03 08:19:54;;;;;;;;;;;;;;;;;;2092461;28;20015;-67
2022/02/03 08:21:17;;;;;;;;;;;;;;;;;;2092138;28;19941;-68
2022/02/03 08:22:56;;;;;;;;;;;;;;;;;;2092231;28;19936;-67
2022/02/03 08:25:45;;;;;;;;;;;;;;;;;;2093407;28;20737;-66
2022/02/03 08:27:24;;;;;;;;;;;;;;;;;;2093629;28;20043;-67
2022/02/03 08:31:43;;;;;;;;;;;;;;;;;;2092217;28;19964;-68
2022/02/03 08:33:04;;;;;;;;;;;;;;;;;;2091016;28;20024;-67
2022/02/03 08:34:21;;;;;;;;;;;;;;;;;;2091759;28;20053;-67
2022/02/03 08:35:45;;;;;;;;;;;;;;;;;;2092647;28;19925;-67
2022/02/03 08:37:06;;;;;;;;;;;;;;;;;;2092334;28;20105;-69
2022/02/03 08:39:09;;;;;;;;;;;;;;;;;;2094920;28;20027;-67
2022/02/03 08:39:56;;;;;;;;;;;;;;;;;;2094995;28;20056;-69
2022/02/03 08:41:11;;;;;;;;;;;;;;;;;;2095422;28;19933;-68
2022/02/03 08:42:24;;;;;;;;;;;;;;;;;;2091730;28;19929;-68
2022/02/03 08:43:25;;;;;;;;;;;;;;;;;;2094637;28;20053;-66
2022/02/03 08:44:29;;;;;;;;;;;;;;;;;;2099964;28;20030;-68
2022/02/03 08:45:46;;;;;;;;;;;;;;;;;;2092164;28;20062;-66
2022/02/03 08:47:00;;;;;;;;;;;;;;;;;;2091429;28;19933;-66
2022/02/03 08:48:21;;;;;;;;;;;;;;;;;;2093720;28;20716;-66
2022/02/03 08:49:46;;;;;;;;;;;;;;;;;;2092279;28;19925;-67
2022/02/03 08:51:08;;;;;;;;;;;;;;;;;;2093257;28;20106;-70
2022/02/03 08:52:52;;;;;;;;;;;;;;;;;;2091486;28;20720;-70
2022/02/03 08:54:13;;;;;;;;;;;;;;;;;;2095563;28;19929;-68
2022/02/03 08:55:52;;;;;;;;;;;;;;;;;;2090834;28;20000;-67
2022/02/03 08:57:21;;;;;;;;;;;;;;;;;;2092033;28;19936;-68
2022/02/03 08:59:08;;;;;;;;;;;;;;;;;;2092586;28;19936;-68
2022/02/03 09:36:47;;;;;;;;;;;;;;;;;;2095470;28;20704;-67
2022/02/03 09:39:11;;;;;;;;;;;;;;;;;;2096344;28;19924;-67
2022/02/03 09:55:36;;;;;;;;;;;;;;;;;;2098352;28;20047;-68
2022/02/03 09:59:17;;;;;;;;;;;;;;;;;;2091922;28;20169;-67
2022/02/03 10:00:23;;;;;;;;;;;;;;;;;;2092468;28;19925;-68
2022/02/03 10:01:27;;;;;;;;;;;;;;;;;;2096939;28;20046;-68
2022/02/03 10:02:32;;;;;;;;;;;;;;;;;;2092690;28;19929;-69
2022/02/03 10:04:50;;;;;;;;;;;;;;;;;;2094873;28;19925;-67
2022/02/03 10:06:04;;;;;;;;;;;;;;;;;;2091352;28;19935;-68
2022/02/03 10:07:17;;;;;;;;;;;;;;;;;;2090911;28;20593;-69
2022/02/03 10:08:19;;;;;;;;;;;;;;;;;;2091978;28;19972;-69
2022/02/03 10:09:29;;;;;;;;;;;;;;;;;;2098314;28;20047;-68
2022/02/03 10:10:33;;;;;;;;;;;;;;;;;;2098384;28;20790;-67
2022/02/03 10:11:36;;;;;;;;;;;;;;;;;;2091470;28;19932;-66
2022/02/03 10:12:37;;;;;;;;;;;;;;;;;;2090951;28;19929;-68
2022/02/03 10:13:40;;;;;;;;;;;;;;;;;;2092345;28;19925;-69
2022/02/03 10:14:42;;;;;;;;;;;;;;;;;;2093742;28;19972;-66
2022/02/03 10:15:43;;;;;;;;;;;;;;;;;;2092461;28;19926;-67
2022/02/03 10:16:47;;;;;;;;;;;;;;;;;;2091523;28;19947;-69
2022/02/03 10:18:00;;;;;;;;;;;;;;;;;;2090571;28;19941;-67
2022/02/03 10:19:15;;;;;;;;;;;;;;;;;;2092012;28;19924;-68
2022/02/03 10:20:30;;;;;;;;;;;;;;;;;;2096491;28;19986;-68
2022/02/03 10:21:35;;;;;;;;;;;;;;;;;;2094942;28;19929;-69
2022/02/03 10:22:37;;;;;;;;;;;;;;;;;;2092025;28;19925;-68
2022/02/03 10:23:47;;;;;;;;;;;;;;;;;;2097107;28;19940;-67
2022/02/03 10:24:51;;;;;;;;;;;;;;;;;;2095320;28;20015;-67
2022/02/03 10:25:56;;;;;;;;;;;;;;;;;;2091838;28;20026;-69
2022/02/03 10:26:58;;;;;;;;;;;;;;;;;;2095684;28;20646;-69
2022/02/03 10:28:12;;;;;;;;;;;;;;;;;;2093296;28;20063;-69
2022/02/03 10:29:22;;;;;;;;;;;;;;;;;;2099783;28;19936;-71
2022/02/03 10:30:55;;;;;;;;;;;;;;;;;;2098076;28;19947;-71
2022/02/03 10:32:03;;;;;;;;;;;;;;;;;;2098127;28;20845;-67
2022/02/03 10:33:15;;;;;;;;;;;;;;;;;;2095709;28;19964;-67
2022/02/03 10:34:33;;;;;;;;;;;;;;;;;;2094229;28;19925;-66
2022/02/03 10:35:40;;;;;;;;;;;;;;;;;;2091443;28;19936;-69
2022/02/03 10:36:58;;;;;;;;;;;;;;;;;;2091722;28;19926;-65
2022/02/03 10:39:42;;;;;;;;;;;;;;;;;;2093134;28;19932;-67
2022/02/03 10:41:07;;;;;;;;;;;;;;;;;;2095322;28;20887;-68
2022/02/03 10:42:28;;;;;;;;;;;;;;;;;;2091401;28;19929;-67
2022/02/03 10:55:05;;;;;;;;;;;;;;;;;;2095114;28;20687;-65
2022/02/03 11:03:22;;;;;;;;;;;;;;;;;;2091058;28;19925;-66
2022/02/03 11:04:59;;;;;;;;;;;;;;;;;;2090543;28;20813;-66
2022/02/03 11:07:25;;;;;;;;;;;;;;;;;;2092415;28;20845;-66
2022/02/03 11:08:37;;;;;;;;;;;;;;;;;;2090903;28;19929;-65
2022/02/03 11:10:50;;;;;;;;;;;;;;;;;;2092524;28;19979;-67
2022/02/03 11:11:57;;;;;;;;;;;;;;;;;;2090581;28;19929;-69
2022/02/03 11:12:58;;;;;;;;;;;;;;;;;;2095001;28;19932;-69
2022/02/03 11:14:00;;;;;;;;;;;;;;;;;;2098002;28;19929;-68
2022/02/03 11:15:01;;;;;;;;;;;;;;;;;;2095322;28;21398;-67
2022/02/03 11:16:03;;;;;;;;;;;;;;;;;;2093439;28;19929;-65
2022/02/03 11:17:05;;;;;;;;;;;;;;;;;;2092381;28;19929;-65
2022/02/03 11:18:06;;;;;;;;;;;;;;;;;;2094739;28;19929;-69
2022/02/03 11:19:12;;;;;;;;;;;;;;;;;;2095117;28;20003;-66
2022/02/03 11:20:14;;;;;;;;;;;;;;;;;;2094901;28;19928;-65
2022/02/03 11:21:16;;;;;;;;;;;;;;;;;;2093898;28;19929;-65
2022/02/03 11:22:23;;;;;;;;;;;;;;;;;;2090938;28;19933;-65
2022/02/03 11:24:35;;;;;;;;;;;;;;;;;;2094828;28;19928;-65
2022/02/03 11:30:30;;;;;;;;;;;;;;;;;;2095842;28;19925;-68
2022/02/03 11:38:10;;;;;;;;;;;;;;;;;;2092206;28;20071;-67
2022/02/03 11:39:48;;;;;;;;;;;;;;;;;;2097979;28;19967;-64
2022/02/03 11:41:20;;;;;;;;;;;;;;;;;;2097308;28;19928;-69
2022/02/03 11:42:29;;;;;;;;;;;;;;;;;;2092461;28;19932;-68
2022/02/03 11:45:34;;;;;;;;;;;;;;;;;;2097954;28;20660;-67
2022/02/03 11:50:33;;;;;;;;;;;;;;;;;;2095879;28;19983;-65
2022/02/03 11:59:19;;;;;;;;;;;;;;;;;;2090680;28;19929;-66
2022/02/03 12:00:48;;;;;;;;;;;;;;;;;;2092690;28;20055;-65
2022/02/03 12:02:19;;;;;;;;;;;;;;;;;;2100004;28;19971;-68
2022/02/03 12:03:38;;;;;;;;;;;;;;;;;;2092687;28;19956;-67
2022/02/03 12:07:10;;;;;;;;;;;;;;;;;;2105542;28;20085;-72
2022/02/03 12:10:25;;;;;;;;;;;;;;;;;;2093085;28;19929;-66
2022/02/03 12:12:58;;;;;;;;;;;;;;;;;;2099357;28;19936;-68
2022/02/03 12:16:44;;;;;;;;;;;;;;;;;;2092424;28;19961;-69
2022/02/03 12:20:00;;;;;;;;;;;;;;;;;;2092160;28;19936;-71
2022/02/03 12:21:09;;;;;;;;;;;;;;;;;;2094753;28;19936;-68
2022/02/03 12:22:36;;;;;;;;;;;;;;;;;;2094176;28;20786;-67
2022/02/03 12:23:51;;;;;;;;;;;;;;;;;;2098511;28;19935;-70
2022/02/03 12:24:57;;;;;;;;;;;;;;;;;;2096508;28;19929;-68
2022/02/03 12:26:05;;;;;;;;;;;;;;;;;;2092249;28;19929;-67
2022/02/03 12:27:16;;;;;;;;;;;;;;;;;;2098346;28;20098;-67
2022/02/03 12:28:28;;;;;;;;;;;;;;;;;;2091873;28;19929;-69
2022/02/03 12:29:37;;;;;;;;;;;;;;;;;;2095894;28;20049;-69
2022/02/03 12:32:52;;;;;;;;;;;;;;;;;;2098657;28;19925;-69
2022/02/03 12:38:49;;;;;;;;;;;;;;;;;;2094170;28;20067;-69
2022/02/03 12:39:56;;;;;;;;;;;;;;;;;;2095636;28;20063;-67
2022/02/03 12:40:59;;;;;;;;;;;;;;;;;;2096639;28;19932;-68
2022/02/03 12:42:06;;;;;;;;;;;;;;;;;;2095751;28;19976;-68
2022/02/03 12:44:25;;;;;;;;;;;;;;;;;;2096881;28;20791;-69
2022/02/03 12:45:27;;;;;;;;;;;;;;;;;;2092421;28;19932;-68
2022/02/03 12:46:30;;;;;;;;;;;;;;;;;;2094415;28;19936;-68
2022/02/03 12:47:32;;;;;;;;;;;;;;;;;;2091593;28;19952;-68
2022/02/03 12:48:35;;;;;;;;;;;;;;;;;;2095894;28;20909;-69
2022/02/03 12:49:37;;;;;;;;;;;;;;;;;;2097777;28;19952;-69
2022/02/03 12:50:41;;;;;;;;;;;;;;;;;;2095976;28;20038;-69
2022/02/03 12:51:44;;;;;;;;;;;;;;;;;;2095855;28;19959;-70
2022/02/03 12:52:45;;;;;;;;;;;;;;;;;;2093898;28;20003;-69
2022/02/03 12:53:47;;;;;;;;;;;;;;;;;;2091603;28;19925;-68
2022/02/03 12:54:50;;;;;;;;;;;;;;;;;;2090756;28;19925;-70
2022/02/03 12:55:52;;;;;;;;;;;;;;;;;;2090896;28;22059;-69
2022/02/03 12:56:55;;;;;;;;;;;;;;;;;;2092033;28;20061;-68
2022/02/03 12:57:58;;;;;;;;;;;;;;;;;;2091666;28;19925;-70
2022/02/03 12:59:01;;;;;;;;;;;;;;;;;;2090264;28;20039;-68
2022/02/03 13:00:04;;;;;;;;;;;;;;;;;;2090423;28;20135;-68
2022/02/03 13:01:15;;;;;;;;;;;;;;;;;;2091919;28;19979;-68
2022/02/03 13:02:20;;;;;;;;;;;;;;;;;;2092737;28;19932;-71
2022/02/03 13:03:27;;;;;;;;;;;;;;;;;;2092217;28;20071;-70
2022/02/03 13:04:29;;;;;;;;;;;;;;;;;;2093559;28;20016;-67
2022/02/03 13:05:36;;;;;;;;;;;;;;;;;;2090718;28;20012;-69
2022/02/03 13:07:02;;;;;;;;;;;;;;;;;;2096441;28;20774;-66
2022/02/03 13:08:01;;;;;;;;;;;;;;;;;;2094352;28;19952;-68
2022/02/03 13:09:07;;;;;;;;;;;;;;;;;;2091741;28;20591;-68
2022/02/03 13:10:11;;;;;;;;;;;;;;;;;;2090646;28;20006;-69
2022/02/03 13:12:31;;;;;;;;;;;;;;;;;;2096484;28;19932;-67
2022/02/03 13:13:51;;;;;;;;;;;;;;;;;;2095870;28;20039;-68
2022/02/03 13:14:56;;;;;;;;;;;;;;;;;;2097348;28;19936;-66
2022/02/03 13:15:59;;;;;;;;;;;;;;;;;;2095225;28;19929;-67
2022/02/03 13:17:16;;;;;;;;;;;;;;;;;;2093081;28;19926;-68
2022/02/03 13:18:24;;;;;;;;;;;;;;;;;;2091574;28;20060;-64
2022/02/03 13:19:38;;;;;;;;;;;;;;;;;;2095631;28;20001;-69
2022/02/03 13:20:48;;;;;;;;;;;;;;;;;;2095753;28;19929;-69
2022/02/03 13:22:14;;;;;;;;;;;;;;;;;;2096462;28;19929;-67
2022/02/03 13:23:18;;;;;;;;;;;;;;;;;;2097370;28;20010;-66
2022/02/03 13:26:35;;;;;;;;;;;;;;;;;;2091918;28;19925;-68
2022/02/03 13:27:57;;;;;;;;;;;;;;;;;;2094546;28;19935;-67
2022/02/03 13:29:06;;;;;;;;;;;;;;;;;;2090346;28;20699;-68
2022/02/03 13:30:16;;;;;;;;;;;;;;;;;;2094340;28;20007;-66
2022/02/03 13:31:30;;;;;;;;;;;;;;;;;;2091850;28;19999;-66
2022/02/03 13:32:41;;;;;;;;;;;;;;;;;;2097426;28;20064;-65
2022/02/03 13:33:52;;;;;;;;;;;;;;;;;;2092486;28;19932;-67
2022/02/03 13:35:12;;;;;;;;;;;;;;;;;;2095884;28;20732;-67
2022/02/03 13:36:25;;;;;;;;;;;;;;;;;;2095121;28;19951;-70
2022/02/03 13:37:45;;;;;;;;;;;;;;;;;;2094672;28;19957;-65
2022/02/03 13:38:59;;;;;;;;;;;;;;;;;;2092127;28;19929;-66
2022/02/03 13:40:05;;;;;;;;;;;;;;;;;;2095569;28;20590;-70
2022/02/03 13:41:13;;;;;;;;;;;;;;;;;;2101069;28;19929;-70
2022/02/03 13:42:18;;;;;;;;;;;;;;;;;;2091395;28;20648;-67
2022/02/03 13:43:22;;;;;;;;;;;;;;;;;;2091341;28;20657;-70
2022/02/03 13:44:26;;;;;;;;;;;;;;;;;;2089985;28;20771;-65
2022/02/03 13:45:30;;;;;;;;;;;;;;;;;;2094003;28;20993;-68
2022/02/03 13:46:33;;;;;;;;;;;;;;;;;;2091054;28;19936;-68
2022/02/03 13:47:35;;;;;;;;;;;;;;;;;;2092749;28;19925;-65
2022/02/03 13:48:38;;;;;;;;;;;;;;;;;;2097193;28;21536;-67
2022/02/03 13:49:43;;;;;;;;;;;;;;;;;;2090774;28;19929;-67
2022/02/03 13:50:45;;;;;;;;;;;;;;;;;;2086992;28;19929;-67
2022/02/03 13:51:48;;;;;;;;;;;;;;;;;;2095758;28;19987;-69
2022/02/03 13:53:10;;;;;;;;;;;;;;;;;;2090569;28;19925;-68
2022/02/03 13:54:25;;;;;;;;;;;;;;;;;;2092090;28;19928;-70
2022/02/03 14:17:15;;;;;;;;;;;;;;;;;;2094860;28;19925;-60
2022/02/03 14:21:47;;;;;;;;;;;;;;;;;;2090319;28;19929;-63
2022/02/03 14:23:11;;;;;;;;;;;;;;;;;;2091039;28;19932;-64
2022/02/03 14:27:14;;;;;;;;;;;;;;;;;;2095982;28;19925;-59
2022/02/03 14:28:16;;;;;;;;;;;;;;;;;;2096528;28;19929;-65
2022/02/03 14:29:25;;;;;;;;;;;;;;;;;;2093893;28;19928;-64
2022/02/03 14:30:28;;;;;;;;;;;;;;;;;;2096368;28;19928;-67
2022/02/03 14:31:33;;;;;;;;;;;;;;;;;;2094812;28;19929;-65
2022/02/03 14:32:38;;;;;;;;;;;;;;;;;;2094492;28;20011;-63
2022/02/03 14:33:42;;;;;;;;;;;;;;;;;;2097144;28;19925;-65
2022/02/03 14:34:47;;;;;;;;;;;;;;;;;;2095007;28;19975;-64
2022/02/03 14:35:51;;;;;;;;;;;;;;;;;;2095616;28;19932;-64
2022/02/03 14:37:02;;;;;;;;;;;;;;;;;;2095526;28;20007;-67
2022/02/03 14:38:26;;;;;;;;;;;;;;;;;;2095110;28;20719;-60
2022/02/03 14:41:16;;;;;;;;;;;;;;;;;;2090865;28;20841;-67
2022/02/03 14:42:19;;;;;;;;;;;;;;;;;;2090901;28;19932;-65
2022/02/03 14:43:21;;;;;;;;;;;;;;;;;;2093579;28;19928;-63
2022/02/03 14:44:23;;;;;;;;;;;;;;;;;;2094355;28;20035;-68
2022/02/03 14:45:26;;;;;;;;;;;;;;;;;;2096481;28;19929;-62
2022/02/03 14:46:27;;;;;;;;;;;;;;;;;;2095201;28;19929;-63
2022/02/03 14:47:31;;;;;;;;;;;;;;;;;;2096106;28;19929;-60
2022/02/03 14:48:33;;;;;;;;;;;;;;;;;;2095764;28;20056;-67
2022/02/03 14:49:36;;;;;;;;;;;;;;;;;;2095067;28;19928;-63
2022/02/03 14:50:38;;;;;;;;;;;;;;;;;;2096400;28;19929;-66
2022/02/03 14:53:20;;;;;;;;;;;;;;;;;;2090545;28;19935;-61
2022/02/03 14:59:17;;;;;;;;;;;;;;;;;;2094922;28;20810;-63
2022/02/03 15:00:22;;;;;;;;;;;;;;;;;;2096332;28;19929;-59